createdAt,value
2018-06-18T00:01:50.911Z,25.13
2018-06-18T00:04:21.667Z,22.97
2018-06-18T00:06:52.287Z,23.33
2018-06-18T00:09:22.819Z,23.70
2018-06-18T00:11:53.372Z,24.07
2018-06-18T00:14:24.171Z,22.67
2018-06-18T00:16:54.749Z,22.50
2018-06-18T00:19:25.240Z,24.07
2018-06-18T00:21:55.640Z,22.93
2018-06-18T00:24:26.269Z,24.57
2018-06-18T00:26:56.717Z,24.23
2018-06-18T00:29:27.240Z,22.93
2018-06-18T00:31:57.657Z,24.90
2018-06-18T00:34:28.028Z,22.97
2018-06-18T00:36:59.725Z,30.17
2018-06-18T00:39:30.243Z,25.80
2018-06-18T00:42:00.717Z,24.87
2018-06-18T00:44:31.206Z,24.17
2018-06-18T00:47:02.050Z,24.03
2018-06-18T00:49:32.784Z,22.57
2018-06-18T00:52:03.352Z,23.20
2018-06-18T00:54:33.736Z,24.50
2018-06-18T00:57:04.225Z,22.23
2018-06-18T00:59:34.767Z,26.37
2018-06-18T01:02:05.252Z,22.87
2018-06-18T01:04:35.998Z,24.27
2018-06-18T01:07:06.584Z,28.93
2018-06-18T01:09:37.064Z,28.33
2018-06-18T01:12:07.748Z,24.53
2018-06-18T01:14:38.316Z,23.50
2018-06-18T01:17:08.837Z,29.93
2018-06-18T01:19:39.864Z,34.87
2018-06-18T01:22:10.281Z,36.20
2018-06-18T01:24:52.337Z,34.07
2018-06-18T01:27:22.943Z,32.60
2018-06-18T01:29:53.397Z,28.00
2018-06-18T01:32:23.916Z,28.07
2018-06-18T01:34:54.417Z,30.77
2018-06-18T01:37:24.884Z,33.53
2018-06-18T01:39:55.557Z,25.53
2018-06-18T01:42:26.125Z,25.93
2018-06-18T01:44:55.998Z,25.77
2018-06-18T01:47:26.523Z,27.37
2018-06-18T01:49:56.834Z,27.40
2018-06-18T01:52:27.475Z,25.37
2018-06-18T01:54:57.979Z,31.17
2018-06-18T01:57:28.399Z,29.73
2018-06-18T01:59:59.068Z,26.63
2018-06-18T02:02:29.599Z,25.30
2018-06-18T02:05:00.235Z,30.50
2018-06-18T02:07:30.874Z,27.63
2018-06-18T02:10:01.626Z,28.13
2018-06-18T02:12:32.224Z,29.37
2018-06-18T02:15:02.642Z,28.27
2018-06-18T02:17:33.323Z,25.50
2018-06-18T02:20:03.924Z,24.03
2018-06-18T02:22:34.646Z,27.43
2018-06-18T02:25:05.259Z,26.17
2018-06-18T02:27:40.946Z,29.33
2018-06-18T02:30:16.492Z,26.47
2018-06-18T02:32:52.114Z,25.00
2018-06-18T02:35:27.906Z,26.73
2018-06-18T02:38:03.528Z,31.27
2018-06-18T02:40:39.112Z,29.17
2018-06-18T02:43:09.897Z,24.33
2018-06-18T02:45:40.227Z,29.53
2018-06-18T02:48:10.961Z,25.00
2018-06-18T02:50:41.725Z,26.90
2018-06-18T02:53:12.341Z,37.30
2018-06-18T02:55:45.227Z,27.53
2018-06-18T02:58:15.732Z,31.67
2018-06-18T03:00:46.178Z,29.10
2018-06-18T03:03:16.748Z,29.40
2018-06-18T03:05:47.371Z,38.23
2018-06-18T03:08:18.181Z,35.50
2018-06-18T03:10:48.887Z,42.37
2018-06-18T03:13:19.531Z,42.90
2018-06-18T03:15:50.180Z,38.87
2018-06-18T03:18:25.815Z,39.10
2018-06-18T03:21:01.496Z,44.73
2018-06-18T03:23:36.859Z,41.83
2018-06-18T03:26:12.431Z,46.80
2018-06-18T03:28:48.352Z,39.10
2018-06-18T03:31:18.782Z,33.03
2018-06-18T03:33:49.158Z,33.10
2018-06-18T03:36:20.815Z,31.03
2018-06-18T03:38:51.561Z,28.97
2018-06-18T03:41:22.220Z,27.97
2018-06-18T03:43:57.996Z,28.97
2018-06-18T03:46:28.596Z,26.73
2018-06-18T03:48:59.121Z,28.80
2018-06-18T03:51:29.865Z,30.63
2018-06-18T03:54:00.349Z,32.90
2018-06-18T03:56:30.774Z,30.43
2018-06-18T03:59:01.185Z,34.60
2018-06-18T04:02:14.216Z,32.00
2018-06-18T04:04:53.077Z,30.87
2018-06-18T04:07:28.675Z,30.33
2018-06-18T04:10:04.153Z,27.07
2018-06-18T04:12:34.592Z,26.23
2018-06-18T04:15:05.051Z,23.47
2018-06-18T04:17:35.580Z,34.03
2018-06-18T04:20:06.152Z,35.50
2018-06-18T04:22:36.656Z,31.17
2018-06-18T04:25:07.201Z,30.67
2018-06-18T04:27:37.686Z,32.50
2018-06-18T04:30:08.332Z,61.60
2018-06-18T04:32:38.699Z,45.33
2018-06-18T04:35:10.587Z,64.70
2018-06-18T04:37:41.591Z,26.20
2018-06-18T04:40:14.665Z,28.07
2018-06-18T04:42:50.401Z,29.93
2018-06-18T04:45:25.901Z,27.77
2018-06-18T04:48:02.616Z,25.20
2018-06-18T04:50:37.973Z,27.07
2018-06-18T04:53:07.862Z,31.30
2018-06-18T04:55:38.468Z,30.80
2018-06-18T04:58:10.024Z,34.67
2018-06-18T05:13:40.949Z,31.33
2018-06-18T05:16:11.442Z,31.93
2018-06-18T05:18:41.862Z,33.00
2018-06-18T05:21:12.225Z,33.27
2018-06-18T05:23:42.665Z,37.13
2018-06-18T05:26:13.077Z,31.53
2018-06-18T05:28:43.852Z,31.60
2018-06-18T05:31:14.287Z,32.17
2018-06-18T05:33:44.880Z,31.50
2018-06-18T05:36:15.376Z,27.70
2018-06-18T05:38:45.956Z,28.77
2018-06-18T05:41:16.669Z,31.17
2018-06-18T05:43:47.251Z,28.63
2018-06-18T05:46:18.058Z,26.33
2018-06-18T05:48:48.619Z,22.87
2018-06-18T05:51:20.175Z,24.77
2018-06-18T05:53:51.764Z,23.27
2018-06-18T05:56:22.320Z,29.93
2018-06-18T05:58:52.808Z,32.93
2018-06-18T06:01:23.281Z,23.83
2018-06-18T06:03:53.889Z,25.53
2018-06-18T06:06:24.263Z,27.20
2018-06-18T06:08:54.774Z,24.17
2018-06-18T06:11:25.417Z,23.30
2018-06-18T06:13:56.150Z,22.40
2018-06-18T06:16:26.658Z,21.93
2018-06-18T06:18:57.407Z,24.60
2018-06-18T06:21:27.768Z,26.47
2018-06-18T06:23:58.428Z,19.80
2018-06-18T06:26:28.781Z,21.20
2018-06-18T06:28:59.356Z,17.77
2018-06-18T06:31:29.785Z,24.90
2018-06-18T06:34:00.340Z,22.30
2018-06-18T06:36:31.118Z,18.30
2018-06-18T06:39:01.599Z,25.07
2018-06-18T06:41:32.717Z,23.57
2018-06-18T06:44:03.197Z,18.97
2018-06-18T06:46:33.632Z,19.47
2018-06-18T06:49:04.176Z,23.00
2018-06-18T06:51:34.747Z,39.00
2018-06-18T06:54:05.364Z,22.17
2018-06-18T06:56:35.816Z,22.03
2018-06-18T06:59:06.652Z,23.30
2018-06-18T07:01:37.089Z,18.30
2018-06-18T07:04:08.392Z,17.23
2018-06-18T07:06:38.939Z,18.47
2018-06-18T07:09:11.457Z,25.20
2018-06-18T07:11:42.454Z,17.37
2018-06-18T07:14:13.017Z,19.77
2018-06-18T07:16:43.524Z,18.33
2018-06-18T07:19:14.098Z,20.90
2018-06-18T07:21:44.515Z,20.50
2018-06-18T07:24:15.003Z,17.70
2018-06-18T07:26:45.446Z,19.37
2018-06-18T07:29:15.928Z,26.60
2018-06-18T07:31:46.361Z,24.60
2018-06-18T07:34:16.857Z,26.30
2018-06-18T07:36:47.746Z,23.53
2018-06-18T07:39:17.579Z,23.37
2018-06-18T07:41:47.988Z,21.60
2018-06-18T07:44:18.713Z,23.67
2018-06-18T07:46:49.415Z,19.87
2018-06-18T07:49:20.105Z,22.93
2018-06-18T07:51:50.780Z,20.53
2018-06-18T07:54:21.203Z,24.07
2018-06-18T07:56:52.547Z,18.80
2018-06-18T07:59:23.197Z,21.73
2018-06-18T08:01:53.732Z,24.07
2018-06-18T08:04:25.384Z,18.93
2018-06-18T08:06:56.061Z,18.57
2018-06-18T08:09:26.694Z,21.63
2018-06-18T08:11:57.477Z,23.30
2018-06-18T08:14:28.039Z,17.97
2018-06-18T08:16:58.528Z,19.67
2018-06-18T08:19:29.151Z,16.70
2018-06-18T08:21:59.652Z,20.50
2018-06-18T08:24:30.276Z,31.97
2018-06-18T08:27:00.896Z,21.27
2018-06-18T08:29:31.483Z,23.07
2018-06-18T08:32:02.244Z,28.40
2018-06-18T08:34:32.592Z,24.50
2018-06-18T08:37:03.280Z,26.70
2018-06-18T08:39:34.307Z,44.13
2018-06-18T08:42:05.860Z,21.60
2018-06-18T08:44:36.279Z,17.83
2018-06-18T08:47:07.318Z,20.57
2018-06-18T08:49:43.372Z,19.33
2018-06-18T08:52:18.960Z,18.87
2018-06-18T08:54:54.440Z,17.67
2018-06-18T08:57:29.987Z,20.00
2018-06-18T09:00:05.759Z,20.57
2018-06-18T09:02:36.077Z,20.10
2018-06-18T09:05:13.482Z,17.97
2018-06-18T09:07:48.893Z,13.50
2018-06-18T09:10:19.455Z,19.30
2018-06-18T09:12:59.398Z,14.50
2018-06-18T09:15:31.631Z,13.70
2018-06-18T09:18:10.942Z,14.07
2018-06-18T09:20:44.070Z,14.93
2018-06-18T09:23:14.721Z,14.67
2018-06-18T09:25:51.413Z,13.30
2018-06-18T09:28:22.552Z,14.40
2018-06-18T09:30:54.842Z,13.77
2018-06-18T09:33:27.176Z,13.73
2018-06-18T09:36:00.181Z,12.70
2018-06-18T09:38:30.745Z,26.30
2018-06-18T09:41:01.307Z,13.00
2018-06-18T09:43:32.057Z,15.87
2018-06-18T09:46:03.188Z,10.97
2018-06-18T09:48:38.548Z,11.00
2018-06-18T09:51:13.935Z,12.27
2018-06-18T09:53:49.402Z,16.37
2018-06-18T09:56:25.151Z,11.10
2018-06-18T09:59:00.825Z,11.57
2018-06-18T10:01:30.994Z,14.23
2018-06-18T10:04:03.120Z,11.23
2018-06-18T10:06:35.895Z,8.87
2018-06-18T10:09:09.875Z,11.97
2018-06-18T10:11:40.522Z,8.73
2018-06-18T10:14:12.252Z,17.63
2018-06-18T10:16:42.649Z,9.83
2018-06-18T10:19:13.844Z,12.17
2018-06-18T10:21:44.467Z,9.57
2018-06-18T10:24:14.864Z,9.73
2018-06-18T10:26:45.655Z,10.83
2018-06-18T10:29:16.264Z,10.03
2018-06-18T10:31:46.685Z,9.10
2018-06-18T10:34:22.141Z,7.33
2018-06-18T10:36:57.829Z,8.17
2018-06-18T10:39:33.468Z,8.07
2018-06-18T10:42:08.987Z,7.10
2018-06-18T10:44:39.848Z,7.43
2018-06-18T10:47:10.440Z,8.03
2018-06-18T10:49:41.101Z,7.47
2018-06-18T10:52:11.501Z,7.63
2018-06-18T10:54:41.969Z,8.40
2018-06-18T10:57:12.526Z,8.53
2018-06-18T10:59:43.118Z,14.63
2018-06-18T11:02:13.756Z,13.47
2018-06-18T11:05:04.659Z,16.03
2018-06-18T11:07:35.225Z,10.53
2018-06-18T11:10:05.769Z,15.27
2018-06-18T11:12:36.456Z,16.07
2018-06-18T11:15:07.208Z,10.67
2018-06-18T11:17:42.861Z,12.10
2018-06-18T11:20:18.519Z,23.17
2018-06-18T11:22:54.134Z,22.77
2018-06-18T11:25:29.875Z,19.00
2018-06-18T11:28:00.614Z,13.90
2018-06-18T11:30:31.561Z,9.93
2018-06-18T11:33:02.193Z,19.40
2018-06-18T11:35:32.721Z,13.50
2018-06-18T11:38:03.380Z,12.33
2018-06-18T11:40:33.867Z,9.23
2018-06-18T11:43:04.686Z,11.70
2018-06-18T11:45:35.486Z,8.13
2018-06-18T11:48:15.957Z,12.23
2018-06-18T11:50:47.003Z,9.33
2018-06-18T11:53:18.263Z,10.90
2018-06-18T11:55:49.073Z,21.13
2018-06-18T11:58:24.841Z,11.53
2018-06-18T12:01:00.680Z,19.57
2018-06-18T12:03:36.684Z,8.33
2018-06-18T12:06:12.210Z,10.80
2018-06-18T12:08:47.641Z,7.90
2018-06-18T12:11:18.173Z,9.17
2018-06-18T12:13:48.796Z,7.97
2018-06-18T12:16:19.201Z,7.17
2018-06-18T12:18:49.810Z,6.43
2018-06-18T12:21:20.193Z,7.57
2018-06-18T12:23:50.684Z,10.57
2018-06-18T12:26:21.196Z,5.40
2018-06-18T12:28:51.682Z,6.33
2018-06-18T12:31:22.175Z,12.80
2018-06-18T12:33:52.776Z,18.93
2018-06-18T12:36:23.490Z,23.77
2018-06-18T12:38:54.084Z,10.07
2018-06-18T12:41:24.643Z,8.50
2018-06-18T12:43:57.080Z,8.37
2018-06-18T12:46:32.712Z,10.40
2018-06-18T12:49:08.636Z,26.23
2018-06-18T12:51:44.100Z,12.30
2018-06-18T12:54:19.715Z,13.63
2018-06-18T12:56:55.484Z,14.83
2018-06-18T12:59:26.031Z,14.03
2018-06-18T13:02:00.717Z,10.73
2018-06-18T13:04:33.081Z,7.07
2018-06-18T13:07:03.489Z,8.43
2018-06-18T13:09:33.923Z,14.00
2018-06-18T13:12:04.576Z,8.83
2018-06-18T13:14:35.089Z,7.00
2018-06-18T13:17:05.488Z,11.70
2018-06-18T13:19:36.274Z,6.17
2018-06-18T13:22:06.705Z,17.23
2018-06-18T13:24:36.577Z,23.30
2018-06-18T13:27:06.798Z,11.73
2018-06-18T13:29:37.690Z,9.60
2018-06-18T13:32:08.235Z,9.07
2018-06-18T13:34:38.712Z,13.90
2018-06-18T13:37:20.700Z,6.33
2018-06-18T13:39:56.171Z,9.00
2018-06-18T13:42:31.785Z,9.93
2018-06-18T13:45:07.646Z,12.87
2018-06-18T13:47:43.504Z,7.13
2018-06-18T13:50:14.191Z,9.50
2018-06-18T13:52:44.769Z,8.40
2018-06-18T13:55:15.189Z,10.40
2018-06-18T13:57:46.110Z,8.90
2018-06-18T14:00:16.894Z,10.33
2018-06-18T14:02:47.624Z,14.80
2018-06-18T14:05:18.324Z,19.83
2018-06-18T14:07:48.813Z,10.70
2018-06-18T14:10:19.324Z,7.93
2018-06-18T14:12:49.775Z,10.33
2018-06-18T14:15:20.311Z,9.43
2018-06-18T14:17:50.923Z,11.00
2018-06-18T14:20:26.468Z,7.13
2018-06-18T14:22:56.992Z,9.30
2018-06-18T14:25:27.484Z,7.63
2018-06-18T14:27:57.989Z,6.87
2018-06-18T14:30:33.834Z,13.60
2018-06-18T14:33:09.553Z,12.17
2018-06-18T14:35:44.998Z,11.90
2018-06-18T14:38:20.660Z,11.43
2018-06-18T14:40:51.156Z,14.80
2018-06-18T14:43:21.776Z,16.73
2018-06-18T14:45:52.772Z,17.63
2018-06-18T14:48:23.179Z,9.33
2018-06-18T14:50:53.912Z,9.90
2018-06-18T14:53:24.389Z,9.07
2018-06-18T14:56:06.591Z,9.27
2018-06-18T14:58:36.948Z,8.20
2018-06-18T15:01:07.523Z,8.97
2018-06-18T15:03:38.080Z,10.40
2018-06-18T15:06:08.758Z,8.80
2018-06-18T15:08:39.529Z,10.30
2018-06-18T15:11:09.857Z,10.67
2018-06-18T15:13:40.873Z,13.70
2018-06-18T15:16:16.377Z,14.43
2018-06-18T15:18:46.791Z,10.40
2018-06-18T15:21:17.425Z,14.33
2018-06-18T15:23:48.068Z,32.30
2018-06-18T15:26:17.862Z,24.13
2018-06-18T15:28:48.267Z,14.97
2018-06-18T15:31:19.089Z,10.70
2018-06-18T15:33:49.621Z,11.93
2018-06-18T15:36:20.536Z,13.90
2018-06-18T15:38:51.051Z,21.80
2018-06-18T15:41:21.804Z,21.33
2018-06-18T15:43:52.372Z,15.93
2018-06-18T15:46:22.879Z,16.60
2018-06-18T15:48:53.818Z,24.97
2018-06-18T15:51:24.281Z,11.43
2018-06-18T15:53:54.830Z,14.13
2018-06-18T15:56:25.448Z,12.00
2018-06-18T15:58:55.342Z,13.30
2018-06-18T16:01:25.912Z,15.43
2018-06-18T16:03:56.201Z,7.97
2018-06-18T16:06:26.589Z,110.63
2018-06-18T16:08:57.229Z,114.60
2018-06-18T16:11:27.787Z,20.23
2018-06-18T16:13:58.307Z,15.47
2018-06-18T16:16:28.908Z,43.63
2018-06-18T16:18:59.469Z,10.10
2018-06-18T16:21:30.416Z,14.87
2018-06-18T16:24:00.867Z,16.63
2018-06-18T16:26:31.292Z,9.83
2018-06-18T16:29:02.652Z,11.43
2018-06-18T16:31:33.627Z,11.33
2018-06-18T16:34:04.221Z,10.00
2018-06-18T16:36:34.706Z,20.07
2018-06-18T16:39:07.478Z,12.87
2018-06-18T16:41:38.103Z,8.20
2018-06-18T16:44:08.813Z,10.93
2018-06-18T16:46:39.620Z,12.93
2018-06-18T16:49:10.256Z,13.67
2018-06-18T16:51:41.604Z,10.27
2018-06-18T16:54:12.031Z,14.17
2018-06-18T16:56:42.500Z,18.23
2018-06-18T16:59:12.949Z,11.77
2018-06-18T17:01:43.666Z,15.20
2018-06-18T17:04:14.320Z,18.87
2018-06-18T17:06:45.138Z,18.60
2018-06-18T17:09:15.629Z,18.50
2018-06-18T17:11:46.029Z,12.03
2018-06-18T17:14:16.540Z,13.87
2018-06-18T17:16:46.942Z,12.33
2018-06-18T17:19:17.300Z,9.83
2018-06-18T17:21:47.775Z,13.90
2018-06-18T17:24:18.240Z,13.50
2018-06-18T17:26:48.811Z,13.30
2018-06-18T17:29:19.287Z,16.47
2018-06-18T17:31:49.866Z,15.17
2018-06-18T17:34:20.920Z,18.87
2018-06-18T17:36:51.505Z,12.53
2018-06-18T17:39:22.237Z,14.30
2018-06-18T17:41:52.721Z,13.30
2018-06-18T17:44:23.483Z,13.83
2018-06-18T17:47:02.569Z,13.23
2018-06-18T17:49:35.214Z,16.90
2018-06-18T17:52:07.269Z,14.77
2018-06-18T17:54:39.624Z,15.73
2018-06-18T17:57:11.580Z,20.20
2018-06-18T17:59:43.483Z,17.33
2018-06-18T18:02:14.441Z,19.73
2018-06-18T18:04:45.208Z,21.57
2018-06-18T18:07:17.675Z,24.03
2018-06-18T18:09:48.413Z,29.97
2018-06-18T18:12:18.993Z,30.37
2018-06-18T18:14:49.373Z,43.57
2018-06-18T18:17:20.248Z,39.97
2018-06-18T18:19:51.030Z,49.43
2018-06-18T18:22:21.936Z,31.27
2018-06-18T18:24:52.937Z,29.20
2018-06-18T18:27:23.504Z,30.80
2018-06-18T18:29:54.009Z,28.67
2018-06-18T18:32:24.524Z,24.80
2018-06-18T18:34:55.140Z,26.43
2018-06-18T18:37:27.361Z,34.53
2018-06-18T18:39:57.885Z,26.90
2018-06-18T18:42:28.640Z,28.53
2018-06-18T18:45:01.187Z,30.60
2018-06-18T18:47:32.913Z,23.87
2018-06-18T18:50:03.425Z,22.63
2018-06-18T18:52:34.135Z,71.47
2018-06-18T18:55:56.211Z,26.03
2018-06-18T18:59:39.066Z,25.00
2018-06-18T19:02:09.933Z,17.77
2018-06-18T19:04:48.519Z,17.67
2018-06-18T19:07:22.643Z,16.20
2018-06-18T19:10:02.390Z,18.53
2018-06-18T19:12:33.916Z,15.63
2018-06-18T19:15:05.137Z,15.67
2018-06-18T19:17:37.717Z,18.50
2018-06-18T19:20:13.764Z,19.23
2018-06-18T19:22:45.927Z,23.53
2018-06-18T19:25:17.176Z,20.33
2018-06-18T19:27:49.205Z,22.03
2018-06-18T19:30:21.512Z,17.93
2018-06-18T19:32:53.716Z,16.83
2018-06-18T19:35:24.140Z,23.80
2018-06-18T19:37:54.963Z,18.07
2018-06-18T19:40:25.715Z,22.63
2018-06-18T19:42:56.622Z,20.60
2018-06-18T19:45:28.604Z,22.33
2018-06-18T19:48:06.716Z,20.67
2018-06-18T19:50:37.286Z,19.80
2018-06-18T19:53:08.332Z,19.43
2018-06-18T19:55:38.973Z,25.77
2018-06-18T19:58:09.904Z,21.83
2018-06-18T20:00:46.233Z,22.27
2018-06-18T20:03:18.289Z,23.03
2018-06-18T20:05:49.917Z,27.53
2018-06-18T20:08:26.412Z,25.30
2018-06-18T20:10:57.706Z,24.30
2018-06-18T20:13:28.901Z,20.03
2018-06-18T20:16:00.661Z,19.20
2018-06-18T20:18:30.908Z,27.20
2018-06-18T20:21:01.445Z,24.27
2018-06-18T20:23:32.696Z,21.00
2018-06-18T20:26:09.031Z,22.23
2018-06-18T20:28:39.992Z,25.00
2018-06-18T20:31:16.043Z,22.73
2018-06-18T20:33:49.338Z,24.60
2018-06-18T20:36:21.576Z,20.70
2018-06-18T20:38:52.602Z,26.17
2018-06-18T20:41:23.501Z,21.00
2018-06-18T20:44:05.076Z,17.83
2018-06-18T20:46:36.910Z,21.13
2018-06-18T20:49:16.664Z,25.87
2018-06-18T20:51:49.033Z,20.03
2018-06-18T20:54:20.727Z,23.30
2018-06-18T20:56:51.440Z,19.63
2018-06-18T20:59:22.462Z,20.70
2018-06-18T21:01:53.096Z,22.37
2018-06-18T21:04:24.751Z,26.37
2018-06-18T21:06:55.655Z,25.83
2018-06-18T21:09:26.237Z,31.33
2018-06-18T21:11:57.163Z,33.30
2018-06-18T21:14:27.822Z,32.93
2018-06-18T21:17:01.353Z,31.70
2018-06-18T21:19:32.024Z,28.30
2018-06-18T21:22:02.761Z,33.30
2018-06-18T21:24:33.289Z,31.73
2018-06-18T21:27:03.960Z,33.93
2018-06-18T21:29:35.005Z,36.67
2018-06-18T21:32:05.541Z,36.77
2018-06-18T21:34:36.222Z,35.23
2018-06-18T21:37:06.859Z,46.83
2018-06-18T21:39:37.633Z,42.83
2018-06-18T21:42:08.082Z,50.20
2018-06-18T21:44:48.028Z,43.83
2018-06-18T21:47:18.431Z,48.43
2018-06-18T21:49:49.091Z,45.13
2018-06-18T21:52:20.128Z,46.27
2018-06-18T21:54:56.220Z,73.10
2018-06-18T21:57:29.587Z,80.93
2018-06-18T22:00:02.189Z,97.33
2018-06-18T22:02:34.112Z,100.97
2018-06-18T22:05:06.494Z,95.23
2018-06-18T22:07:36.897Z,97.13
2018-06-18T22:10:10.395Z,97.97
2018-06-18T22:12:43.583Z,108.40
2018-06-18T22:15:15.636Z,84.83
2018-06-18T22:17:47.091Z,68.83
2018-06-18T22:20:18.566Z,55.63
2018-06-18T22:22:50.125Z,68.20
2018-06-18T22:38:27.585Z,55.80
2018-06-18T22:40:59.671Z,53.43
2018-06-18T22:43:31.818Z,79.27
2018-06-18T22:46:02.332Z,116.87
2018-06-18T22:48:32.737Z,121.90
2018-06-18T22:51:03.090Z,132.97
2018-06-18T22:53:33.633Z,144.27
2018-06-18T22:56:04.183Z,154.40
2018-06-18T22:58:34.671Z,141.70
2018-06-18T23:01:05.376Z,131.13
2018-06-18T23:06:42.339Z,106.43
2018-06-18T23:09:13.129Z,107.60
2018-06-18T23:11:43.845Z,93.53
2018-06-18T23:14:19.464Z,84.63
2018-06-18T23:16:50.553Z,91.37
2018-06-18T23:19:21.230Z,62.40
2018-06-18T23:21:51.867Z,73.87
2018-06-18T23:24:22.363Z,60.50
2018-06-18T23:26:52.889Z,51.50
2018-06-18T23:29:23.786Z,46.90
2018-06-18T23:31:53.812Z,50.50
2018-06-18T23:34:24.500Z,41.13
2018-06-18T23:36:54.997Z,36.07
2018-06-18T23:39:25.521Z,38.33
2018-06-18T23:41:57.718Z,35.43
2018-06-18T23:44:28.422Z,36.07
2018-06-18T23:46:59.296Z,31.63
2018-06-18T23:49:30.112Z,33.20
2018-06-18T23:52:00.752Z,32.37
2018-06-18T23:54:31.854Z,32.47
2018-06-18T23:57:02.503Z,31.23
2018-06-18T23:59:33.133Z,37.40
